CSUN New Campus Station -PST Time - Most Recent Data on bottom of page




           Date/Time      Avg      Avg      Max     Wind      Avg      Max      Min      Avg      Avg    Total      Avg     Batt
                         Wind     Wind     Wind      Dir     Temp     Temp     Temp       RH      Bar     Rain    Solar     Volt
                      Spd MPH      Dir  Spd MPH   at Max    Deg_F    Deg_F    Deg_F        % Press_mb   Inches     W/m2      Min
--------------------------------------------------------------------------------------------------------------------------------
    07/27/2016 00:00      0.0       51      1.8       73     74.8     75.2     74.5       48     1011     0.00        0     13.2
    07/27/2016 00:15      0.6       54      2.4       40     75.6     75.9     75.0       45     1011     0.00        0     13.2
    07/27/2016 00:30      0.6       59      3.2       53     75.6     75.9     75.3       42     1011     0.00        0     13.2
    07/27/2016 00:45      0.6       86      3.4       77     75.8     76.1     75.5       43     1011     0.00        0     13.2
    07/27/2016 01:00      0.0       80      1.1       88     75.0     75.8     74.4       47     1011     0.00        0     13.2
    07/27/2016 01:15      0.0        0      0.0      130     74.3     74.5     73.9       46     1011     0.00        0     13.2
    07/27/2016 01:30      0.0        0      0.0      186     74.0     74.2     73.8       47     1011     0.00        0     13.3
    07/27/2016 01:45      0.2       49      2.1       35     74.2     74.5     73.9       45     1011     0.00        0     13.3
    07/27/2016 02:00      0.4       52      2.1       58     74.7     75.0     74.3       43     1011     0.00        0     13.3
    07/27/2016 02:15      0.3       35      2.1       35     74.8     75.0     74.4       46     1010     0.00        0     13.3
    07/27/2016 02:30      0.1       19      2.2       35     74.3     74.7     74.0       45     1010     0.00        0     13.3
    07/27/2016 02:45      0.0        0      0.0       42     73.9     74.2     73.5       46     1010     0.00        0     13.3
    07/27/2016 03:00      0.0        0      0.0      341     73.3     73.8     72.9       47     1010     0.00        0     13.3
    07/27/2016 03:15      0.0        0      0.0      306     72.8     73.1     72.5       47     1010     0.00        0     13.3
    07/27/2016 03:30      0.0        0      0.0      316     72.6     73.0     72.2       49     1011     0.00        0     13.3
    07/27/2016 03:45      0.0        0      0.0      320     72.1     72.5     71.9       50     1011     0.00        0     13.3
    07/27/2016 04:00      0.0      136      1.1      138     71.8     72.1     71.4       52     1011     0.00        0     13.3
    07/27/2016 04:15      0.0        0      0.0      152     71.3     71.7     71.0       56     1011     0.00        0     13.3
    07/27/2016 04:30      0.0        0      0.0      112     71.4     71.5     71.1       54     1011     0.00        0     13.3
    07/27/2016 04:45      0.5       30      2.7       32     71.5     71.9     71.2       54     1011     0.00        0     13.3
    07/27/2016 05:00      0.1       34      1.8       32     71.8     72.1     71.4       54     1011     0.00        0     13.3
    07/27/2016 05:15      0.0        0      0.0       64     71.2     71.7     70.8       55     1011     0.00        5     13.3
    07/27/2016 05:30      0.0        0      0.0       80     70.9     71.1     70.6       55     1011     0.00       12     13.3
    07/27/2016 05:45      0.0        0      0.0       80     71.0     71.6     70.7       53     1011     0.00       22     13.3
    07/27/2016 06:00      0.0        0      0.0      321     72.0     72.8     71.4       51     1012     0.00       77     13.3
    07/27/2016 06:15      0.0       84      0.9       85     74.5     76.3     72.6       45     1012     0.00      127     13.3
    07/27/2016 06:30      0.0       87      0.0       87     77.2     79.1     76.0       42     1012     0.00      174     13.2
    07/27/2016 06:45      0.0      175      0.7      161     77.3     79.3     76.0       47     1012     0.00      221     13.2
    07/27/2016 07:00      0.3      183      1.8      168     76.5     77.2     75.9       44     1012     0.00      268     13.2
    07/27/2016 07:15      0.0      177      0.7      175     78.1     79.0     76.9       35     1012     0.00      317     13.2
    07/27/2016 07:30      0.1      161      2.4      162     80.2     81.5     78.9       33     1012     0.00      361     13.2
    07/27/2016 07:45      0.6      190      2.5      256     81.3     82.4     80.0       32     1012     0.00      419     13.1
    07/27/2016 08:00      1.5      190      3.6      195     81.3     82.4     80.8       30     1012     0.00      466     13.1
    07/27/2016 08:15      0.7      173      3.2      170     82.3     82.9     81.6       30     1012     0.00      513     13.1
    07/27/2016 08:30      1.1      171      3.5      178     83.5     84.1     82.7       26     1012     0.00      561     13.1
    07/27/2016 08:45      1.8      147      4.8      104     84.7     85.3     83.9       22     1012     0.00      606     13.1
    07/27/2016 09:00      1.6      137      5.0      180     85.7     86.9     84.6       23     1012     0.00      648     13.1
    07/27/2016 09:15      2.2      148      6.1      144     86.8     87.7     86.0       21     1012     0.00      687     13.0
    07/27/2016 09:30      2.2      137      5.1      142     87.7     88.6     86.6       21     1012     0.00      726     13.0
    07/27/2016 09:45      1.7      128      5.8      103     88.8     90.0     87.5       17     1012     0.00      761     13.0
    07/27/2016 10:00      2.6      121      7.0      133     90.2     91.2     89.6       14     1012     0.00      793     13.0
    07/27/2016 10:15      2.3      124      7.1      178     91.8     92.5     91.1       12     1012     0.00      821     13.0
    07/27/2016 10:30      1.2       97      5.3       99     92.8     94.1     91.7       12     1012     0.00      846     13.0
    07/27/2016 10:45      3.8      178      6.8      158     93.1     93.9     92.3       13     1012     0.00      867     13.0
    07/27/2016 11:00      1.9       97      7.2       98     93.5     94.1     92.6       15     1012     0.00      883     13.0
    07/27/2016 11:15      2.2      115      7.1      125     94.5     95.1     93.6       17     1012     0.00      894     13.0
    07/27/2016 11:30      3.1      123      9.9      154     94.4     95.2     93.7       18     1012     0.00      902     13.0
    07/27/2016 11:45      3.5      138      8.0      198     94.1     95.3     93.2       19     1012     0.00      909     13.0
    07/27/2016 12:00      3.4      134      7.3      162     94.8     95.5     94.0       17     1012     0.00      915     13.0
    07/27/2016 12:15      3.5      138      7.8       70     95.9     96.8     95.0       16     1011     0.00      917     13.0
    07/27/2016 12:30      3.8      140      7.1      170     96.7     97.5     95.8       17     1011     0.00      914     13.0
    07/27/2016 12:45      3.9      122      9.3      141     96.6     97.4     95.3       16     1011     0.00      908     13.0
    07/27/2016 13:00      3.7      126      8.0      160     97.7     98.2     96.8       15     1011     0.00      898     12.9
    07/27/2016 13:15      4.3      134      8.9      146     97.7     98.4     97.1       15     1011     0.00      885     12.9
    07/27/2016 13:30      4.0      122      8.9      111     98.1     98.6     97.4       17     1011     0.00      869     12.9
    07/27/2016 13:45      4.2      128     10.0      141     98.6     99.1     97.9       15     1011     0.00      849     12.9
    07/27/2016 14:00      3.8       98     10.1       90     98.5     99.1     97.5       12     1011     0.00      827     12.9
    07/27/2016 14:15      4.6      106     11.3      114     98.4     98.7     97.9       13     1011     0.00      799     12.9
    07/27/2016 14:30      4.8      113     11.7       95     98.5     99.2     97.0       14     1010     0.00      768     12.9
    07/27/2016 14:45      4.0      101     12.1       88     97.2     98.0     96.5       14     1010     0.00      733     12.9
    07/27/2016 15:00      2.0       95      6.2       76     97.9     98.7     97.3       14     1011     0.00      672     12.9
    07/27/2016 15:15      2.3      111      7.2      133     97.5     98.2     96.1       15     1011     0.00      656     12.9
    07/27/2016 15:30      2.7      145      5.5      155     96.5     98.2     95.9       11     1011     0.00      615     12.9
    07/27/2016 15:45      3.7      276     11.1      246     98.1     98.6     97.5       11     1010     0.00      574     12.9
    07/27/2016 16:00      4.0      271     11.8      251     97.6     98.6     96.9       12     1010     0.00      530     12.9
    07/27/2016 16:15      3.4      272      7.2      241     97.4     97.8     96.8       12     1010     0.00      483     12.9
    07/27/2016 16:30      4.6      276     11.0      258     96.4     96.9     96.0       12     1010     0.00      433     12.9
    07/27/2016 16:45      5.4      262     12.8      252     95.9     96.6     95.2       12     1010     0.00      382     12.9
    07/27/2016 17:00      5.4      276     12.1      254     95.4     96.1     94.9       11     1010     0.00      333     13.0
    07/27/2016 17:15      5.2      278     11.2      295     94.5     94.9     93.9       12     1010     0.00      284     13.0
    07/27/2016 17:30      5.4      274     10.1      243     93.6     94.1     93.2       13     1010     0.00      235     13.0
    07/27/2016 17:45      6.1      272     11.6      283     92.4     93.4     91.7       13     1010     0.00      184     13.0
    07/27/2016 18:00      5.0      276     13.1      254     91.1     91.8     90.8       13     1010     0.00       86     13.0
    07/27/2016 18:15      4.6      282      9.5      249     90.4     90.9     90.0       13     1010     0.00       32     13.0
    07/27/2016 18:30      4.5      275     10.7      272     89.5     90.1     88.8       14     1010     0.00       23     13.1
    07/27/2016 18:45      4.0      266      9.0      255     88.3     88.8     87.8       15     1010     0.00       11     13.1
    07/27/2016 19:00      4.0      263      9.5      256     87.4     88.0     86.9       15     1010     0.00        6     13.1
    07/27/2016 19:15      3.4      265      8.6      241     86.6     87.1     86.2       15     1010     0.00        2     13.1
    07/27/2016 19:30      2.6      265      7.6      255     86.0     86.5     85.4       16     1010     0.00        0     13.1
    07/27/2016 19:45      1.9      228      7.2      259     84.9     85.7     83.7       15     1011     0.00        0     13.1
    07/27/2016 20:00      1.0      205      3.2      186     83.4     84.0     83.1       17     1011     0.00        0     13.1
    07/27/2016 20:15      0.1      198      1.5      252     83.0     83.4     82.5       19     1011     0.00        0     13.1
    07/27/2016 20:30      0.0      187      0.3      187     82.2     82.6     81.9       16     1011     0.00        0     13.2
    07/27/2016 20:45      0.8      190      3.1      180     82.4     82.8     82.1       19     1011     0.00        0     13.2
    07/27/2016 21:00      2.4      189      4.3      195     82.0     82.6     81.5       21     1011     0.00        0     13.2
    07/27/2016 21:15      0.2      232      3.0      202     81.6     81.9     81.4       21     1011     0.00        0     13.2
    07/27/2016 21:30      0.3      152      2.2      179     81.5     81.9     81.1       21     1011     0.00        0     13.2
    07/27/2016 21:45      0.8       99      4.1       69     81.9     82.2     81.6       32     1011     0.00        0     13.2
    07/27/2016 22:00      1.3       99      4.7       79     81.2     81.9     80.4       39     1011     0.00        0     13.2
    07/27/2016 22:15      1.2       92      4.9       93     80.0     80.6     79.4       42     1011     0.00        0     13.2
    07/27/2016 22:30      1.4       99      4.4       76     79.0     79.7     78.3       45     1011     0.00        0     13.2
    07/27/2016 22:45      2.1       94      5.2       99     78.2     78.7     77.7       46     1011     0.00        0     13.2
    07/27/2016 23:00      2.2       73      5.1       69     77.3     77.9     76.8       48     1011     0.00        0     13.2
    07/27/2016 23:15      1.3       68      3.9       86     76.8     77.2     76.6       48     1011     0.00        0     13.2
    07/27/2016 23:30      0.7       67      3.6       43     76.5     76.8     76.1       48     1011     0.00        0     13.2
    07/27/2016 23:45      1.2       67      3.4       48     76.3     76.5     76.0       47     1011     0.00        0     13.2
    07/28/2016 00:00      2.5       54      4.6       81     76.0     76.4     75.8       50     1011     0.00        0     13.2
    07/28/2016 00:15      1.3       37      3.7        8     75.6     75.9     75.3       50     1011     0.00        0     13.2
    07/28/2016 00:30      0.7       33      3.3      354     75.3     75.6     75.1       50     1011     0.00        0     13.2
    07/28/2016 00:45      0.9       26      3.4      323     75.3     75.5     75.1       47     1011     0.00        0     13.2
    07/28/2016 01:00      1.3       42      3.8       40     75.3     75.5     75.1       47     1011     0.00        0     13.2
    07/28/2016 01:15      1.7       62      4.1       50     75.0     75.3     74.7       49     1011     0.00        0     13.2
    07/28/2016 01:30      1.7       67      4.6      102     74.5     74.8     74.1       50     1011     0.00        0     13.2
    07/28/2016 01:45      1.5       93      4.9       89     74.2     74.4     73.9       48     1011     0.00        0     13.2
    07/28/2016 02:00      0.7       75      2.6       90     74.0     74.2     73.7       50     1011     0.00        0     13.3
    07/28/2016 02:15      0.1       91      1.9      105     73.3     73.9     72.9       53     1011     0.00        0     13.3
    07/28/2016 02:30      0.4       68      2.9       70     73.2     73.6     72.8       52     1011     0.00        0     13.3
    07/28/2016 02:45      1.0       75      3.2       68     73.5     73.8     73.2       51     1011     0.00        0     13.3
    07/28/2016 03:00      0.1       67      1.8       90     73.2     73.5     72.8       52     1011     0.00        0     13.3
    07/28/2016 03:15      0.0       54      0.9       54     72.8     73.2     72.5       53     1011     0.00        0     13.3
    07/28/2016 03:30      0.0        0      0.0       20     72.0     72.7     71.3       56     1011     0.00        0     13.3
    07/28/2016 03:45      0.7       77      2.5       76     71.6     72.3     71.1       55     1011     0.00        0     13.3
    07/28/2016 04:00      0.3       77      1.9       78     72.3     72.6     72.0       56     1011     0.00        0     13.3
    07/28/2016 04:15      0.5       71      2.5       71     72.1     72.3     71.8       57     1011     0.00        0     13.3
    07/28/2016 04:30      0.0       61      2.1       66     72.0     72.1     71.6       59     1011     0.00        0     13.3
    07/28/2016 04:45      0.8       52      2.6       45     71.5     71.9     71.1       59     1011     0.00        0     13.3
    07/28/2016 05:00      1.1       51      3.0       41     71.6     71.9     71.5       60     1011     0.00        0     13.3
    07/28/2016 05:15      1.1       64      2.9       55     71.5     71.7     71.2       61     1012     0.00        5     13.3
    07/28/2016 05:30      0.5       68      2.6       78     71.3     71.5     71.0       63     1012     0.00       13     13.3
    07/28/2016 05:45      0.7       42      2.7       53     71.2     71.4     71.0       62     1012     0.00       23     13.3
    07/28/2016 06:00      0.9       60      3.2       73     71.9     72.8     71.3       57     1012     0.00       81     13.3
    07/28/2016 06:15      1.5       74      3.3       41     73.3     73.8     72.7       54     1012     0.00      126     13.3
    07/28/2016 06:30      0.7      103      2.2      161     74.1     74.8     73.5       54     1012     0.00      170     13.2
    07/28/2016 06:45      1.1      164      2.6      149     73.7     74.6     73.3       53     1012     0.00      218     13.2
    07/28/2016 07:00      0.3      167      2.5      178     74.8     75.6     74.1       50     1012     0.00      266     13.2
    07/28/2016 07:15      0.3      264      1.7      198     75.9     76.5     75.3       48     1012     0.00      311     13.2
    07/28/2016 07:30      0.0      236      0.8      251     77.6     79.6     76.4       42     1012     0.00      362     13.2
    07/28/2016 07:45      0.4      134      3.4       88     79.7     80.4     79.2       40     1012     0.00      415     13.2
    07/28/2016 08:00      1.3      166      3.2      136     79.8     80.4     79.0       36     1012     0.00      462     13.1
    07/28/2016 08:15      1.1      150      4.6      141     80.6     81.0     80.2       34     1012     0.00      510     13.1
    07/28/2016 08:30      1.5      150      3.8      143     81.3     82.0     80.5       33     1012     0.00      496     13.1
    07/28/2016 08:45      1.4       96      4.6       90     82.3     83.2     81.6       31     1012     0.00      595     13.1
    07/28/2016 09:00      2.2      118      5.7      139     83.8     84.2     83.1       28     1012     0.00      635     13.1
    07/28/2016 09:15      3.3       85      8.3       92     84.3     85.3     83.5       23     1012     0.00      678     13.1
    07/28/2016 09:30      3.5      106      8.1       97     85.3     85.8     84.6       23     1012     0.00      716     13.1
    07/28/2016 09:45      3.6       89      7.5      127     86.1     87.0     85.5       23     1012     0.00      748     13.1
    07/28/2016 10:00      3.2      101      7.5       84     86.9     87.7     86.4       22     1012     0.00      779     13.0
    07/28/2016 10:15      3.3      120      8.0       77     88.3     88.7     87.7       19     1012     0.00      812     13.0
    07/28/2016 10:30      4.2      100     10.7       89     88.7     89.5     88.0       19     1012     0.00      818     13.0
    07/28/2016 10:45      4.5      128     11.0      162     89.1     90.2     88.3       18     1012     0.00      860     13.0
    07/28/2016 11:00      3.6      122     10.3      104     89.9     90.5     89.4       21     1012     0.00      878     13.0
    07/28/2016 11:15      4.0      127      8.6       90     90.0     90.7     89.2       22     1012     0.00      891     13.0
    07/28/2016 11:30      3.4      114      8.1       83     90.9     91.7     90.3       22     1011     0.00      903     13.0
    07/28/2016 11:45      4.2      125      9.5      141     91.4     92.2     90.6       22     1011     0.00      909     13.0
    07/28/2016 12:00      4.5      148     10.8      159     91.2     92.4     90.3       22     1011     0.00      911     13.0
    07/28/2016 12:15      3.7      116      8.7       88     91.8     92.2     91.4       24     1011     0.00      911     13.0
    07/28/2016 12:30      3.7      135      8.2      160     92.5     93.3     91.6       23     1011     0.00      910     13.0
    07/28/2016 12:45      4.6      115      9.5       99     92.3     92.8     91.7       24     1011     0.00      904     13.0
    07/28/2016 13:00      2.5      142      6.0      100     92.3     93.3     91.5       23     1010     0.00      894     13.0
    07/28/2016 13:15      1.7      146      5.7      185     93.0     93.7     92.4       22     1010     0.00      881     13.0
    07/28/2016 13:30      1.3      144      5.6      128     93.9     94.7     92.9       20     1010     0.00      864     13.0
    07/28/2016 13:45      2.0      135      6.5      180     94.7     95.4     94.1       22     1010     0.00      844     12.9
    07/28/2016 14:00      3.4      138      7.7      143     95.0     96.1     94.4       19     1009     0.00      821     12.9
    07/28/2016 14:15      2.5      166      7.2      172     96.2     97.6     95.4       16     1009     0.00      792     12.9
    07/28/2016 14:30      3.0      121      9.4       97     96.9     97.5     96.3       16     1009     0.00      758     12.9
    07/28/2016 14:45      3.4      149      6.6      154     97.2     97.7     96.7       15     1009     0.00      724     12.9
    07/28/2016 15:00      2.2      248      5.6       92     98.7     99.7     97.4       16     1008     0.00      665     12.9
    07/28/2016 15:15      4.1      126     11.7      160     97.9     98.8     96.9       17     1008     0.00      645     12.9
    07/28/2016 15:30      4.4      126      9.4      142     97.6     98.3     96.5       22     1008     0.00      603     12.9
    07/28/2016 15:45      5.7      131     14.5      141     96.6     97.1     95.5       22     1008     0.00      560     12.9
    07/28/2016 16:00      4.2      120     10.2      159     96.0     96.4     95.5       20     1008     0.00      513     12.9
    07/28/2016 16:15      4.7      112     13.0      102     95.2     96.1     94.4       21     1008     0.00      465     12.9
    07/28/2016 16:30      4.7      116      9.7       79     94.1     95.1     93.4       20     1008     0.00      418     12.9
    07/28/2016 16:45      4.8       98     10.9       86     93.1     94.1     92.1       21     1008     0.00      371     13.0
    07/28/2016 17:00      4.4       97      9.6       89     92.3     93.3     91.1       18     1008     0.00      317     13.0
    07/28/2016 17:15      3.9       97     10.1       95     91.7     92.1     91.2       17     1008     0.00      267     13.0
    07/28/2016 17:30      4.7       84      9.8       96     90.8     91.5     90.1       18     1008     0.00      218     13.0
    07/28/2016 17:45      4.2       83      9.8       79     89.7     90.3     88.9       18     1008     0.00      172     13.0
    07/28/2016 18:00      3.4       91      7.8       80     88.7     89.2     88.2       19     1009     0.00       90     13.0
    07/28/2016 18:15      3.6       78      7.5       69     87.9     88.4     87.3       21     1009     0.00       37     13.1
    07/28/2016 18:30      2.7       70      6.5       52     87.2     87.6     86.8       20     1009     0.00       31     13.1
    07/28/2016 18:45      1.8       57      5.1       54     86.8     87.1     86.5       17     1009     0.00       17     13.1
    07/28/2016 19:00      1.8       57      4.8       90     86.5     86.9     86.0       17     1009     0.00        7     13.1
    07/28/2016 19:15      1.6       76      3.7       35     85.9     86.3     85.7       17     1009     0.00        2     13.1
    07/28/2016 19:30      1.7       60      4.6       64     85.4     85.9     85.0       22     1009     0.00        0     13.1
    07/28/2016 19:45      1.8       69      4.4       58     84.8     85.2     84.5       23     1009     0.00        0     13.1
    07/28/2016 20:00      2.1       60      4.6       51     84.3     84.6     84.0       24     1009     0.00        0     13.1
    07/28/2016 20:15      1.1       76      3.2       61     83.8     84.2     83.6       25     1009     0.00        0     13.1
    07/28/2016 20:30      1.1       77      3.5       76     83.4     83.7     82.7       28     1010     0.00        0     13.1
    07/28/2016 20:45      1.1      103      4.9      104     82.4     82.9     82.0       30     1010     0.00        0     13.2
    07/28/2016 21:00      0.7       87      4.4       49     81.6     82.3     81.1       34     1010     0.00        0     13.2
    07/28/2016 21:15      1.6       92      4.3       99     81.0     81.2     80.6       36     1010     0.00        0     13.2
    07/28/2016 21:30      0.7       84      2.9       87     80.4     80.8     80.0       39     1010     0.00        0     13.2
    07/28/2016 21:45      0.2       92      2.7       94     79.7     80.2     79.3       40     1010     0.00        0     13.2
    07/28/2016 22:00      0.5       97      3.2       83     79.4     79.7     78.9       42     1010     0.00        0     13.2
    07/28/2016 22:15      0.0      122      0.5      129     78.6     79.0     78.1       43     1010     0.00        0     13.2
    07/28/2016 22:30      0.0       70      1.2       62     77.8     78.3     77.5       39     1009     0.00        0     13.2
    07/28/2016 22:45      0.0       87      1.3       77     77.9     78.3     77.5       39     1009     0.00        0     13.2
    07/28/2016 23:00      0.0       52      0.0       52     77.4     77.8     77.2       41     1009     0.00        0     13.2
    07/28/2016 23:15      1.1       79      2.9       86     77.8     78.1     77.3       40     1009     0.00        0     13.2
    07/28/2016 23:30      0.8       79      2.6       85     77.9     78.1     77.6       41     1010     0.00        0     13.2
    07/28/2016 23:45      1.0       63      2.9       43     77.6     77.8     77.4       39     1009     0.00        0     13.2
    07/29/2016 00:00      0.8       71      4.1       83     77.3     77.6     76.9       40     1009     0.00        0     13.2
    07/29/2016 00:15      1.4       68      3.2       40     76.9     77.2     76.6       43     1009     0.00        0     13.2
    07/29/2016 00:30      0.8       63      2.8       58     76.4     76.8     76.1       43     1009     0.00        0     13.2
    07/29/2016 00:45      1.7       57      4.1       44     75.9     76.3     75.5       44     1009     0.00        0     13.2
    07/29/2016 01:00      1.8       55      4.0       30     75.5     75.8     75.2       45     1009     0.00        0     13.2
    07/29/2016 01:15      1.6       65      4.2       29     75.1     75.5     74.7       43     1009     0.00        0     13.2
    07/29/2016 01:30      1.2       50      3.5       59     74.5     75.0     74.3       43     1009     0.00        0     13.2
    07/29/2016 01:45      1.4       43      3.9       37     74.3     74.5     73.9       45     1009     0.00        0     13.2
    07/29/2016 02:00      1.0       46      3.5       44     74.1     74.3     73.8       46     1009     0.00        0     13.2
    07/29/2016 02:15      0.0       51      1.8       40     74.0     74.4     73.6       46     1009     0.00        0     13.3
    07/29/2016 02:30      0.5       40      2.2       51     74.2     74.5     73.9       45     1009     0.00        0     13.3
    07/29/2016 02:45      0.2       62      2.1       64     74.1     74.5     73.5       46     1009     0.00        0     13.3
    07/29/2016 03:00      0.0        0      0.0      316     73.2     73.7     72.9       48     1009     0.00        0     13.3
    07/29/2016 03:15      0.0        0      0.0      277     72.4     73.0     71.9       50     1009     0.00        0     13.3
    07/29/2016 03:30      0.0        0      0.0      277     71.9     72.1     71.6       52     1009     0.00        0     13.3
    07/29/2016 03:45      0.0        0      0.0      118     71.8     71.9     71.5       53     1009     0.00        0     13.3
    07/29/2016 04:00      0.0       62      0.0       62     71.8     72.0     71.6       53     1009     0.00        0     13.3
    07/29/2016 04:15      0.0      162      0.0      157     71.7     72.0     71.3       55     1009     0.00        0     13.3
    07/29/2016 04:30      0.0      224      0.0      204     71.3     71.6     71.1       56     1009     0.00        0     13.3
    07/29/2016 04:45      0.0      272      0.0      261     71.2     71.3     70.9       55     1009     0.00        0     13.3
    07/29/2016 05:00      0.0        0      0.0      278     71.0     71.2     70.8       53     1009     0.00        0     13.3
    07/29/2016 05:15      0.0      321      0.0      321     71.3     71.4     71.0       53     1009     0.00        4     13.3
    07/29/2016 05:30      0.0      320      0.0      320     71.0     71.3     70.8       55     1009     0.00       13     13.3
    07/29/2016 05:45      0.0        0      0.0      308     71.5     71.8     71.1       54     1009     0.00       26     13.3
    07/29/2016 06:00      0.0        0      0.0       86     72.2     72.8     71.7       52     1009     0.00       76     13.3
    07/29/2016 06:15      0.0        0      0.0      267     74.1     75.2     72.8       46     1009     0.00      117     13.3
    07/29/2016 06:30      0.0      168      0.0      169     75.2     75.8     74.8       49     1010     0.00      158     13.2
    07/29/2016 06:45      0.0      185      0.6      179     76.0     76.7     75.5       46     1010     0.00      202     13.2
    07/29/2016 07:00      0.1       69      1.9       93     77.9     78.9     76.5       40     1010     0.00      247     13.2
    07/29/2016 07:15      0.0       27      1.3       21     79.6     80.0     78.6       37     1010     0.00      289     13.2
    07/29/2016 07:30      0.6      171      2.3      175     79.5     80.7     78.7       41     1010     0.00      345     13.2
    07/29/2016 07:45      0.6       84      3.2       75     80.2     80.8     79.1       39     1010     0.00      394     13.1
    07/29/2016 08:00      0.8      110      3.1       98     81.3     81.9     80.8       36     1010     0.00      441     13.1
    07/29/2016 08:15      0.9       81      3.3       98     82.3     83.4     81.4       35     1010     0.00      489     13.1
    07/29/2016 08:30      0.7      244      2.7      203     83.2     83.5     82.9       34     1010     0.00      535     13.1
    07/29/2016 08:45      1.4      196      4.2      194     83.3     83.7     83.0       34     1010     0.00      578     13.1
    07/29/2016 09:00      1.3      154      3.8      138     84.5     86.0     83.6       32     1010     0.00      620     13.1
    07/29/2016 09:15      1.4      150      4.1      184     86.6     87.5     85.7       31     1009     0.00      662     13.0
    07/29/2016 09:30      0.4      232      2.9      203     87.3     88.0     86.1       30     1009     0.00      703     13.0
    07/29/2016 09:45      1.4      166      4.6      139     88.1     89.4     87.3       28     1009     0.00      737     13.0
    07/29/2016 10:00      1.9      196      5.3      184     89.3     89.8     88.6       28     1009     0.00      768     13.0
    07/29/2016 10:15      2.8      175      6.3      193     90.4     91.4     89.5       27     1009     0.00      797     13.0
    07/29/2016 10:30      2.4      102      6.7      130     92.3     92.8     90.9       23     1009     0.00      823     13.0
    07/29/2016 10:45      3.8      128      7.9      148     92.8     93.7     92.1       25     1009     0.00      845     13.0
    07/29/2016 11:00      3.2      102      6.9       77     93.6     95.0     93.0       25     1009     0.00      864     13.0
    07/29/2016 11:15      4.5      119      9.3      154     94.5     95.5     92.8       26     1009     0.00      877     13.0
    07/29/2016 11:30      4.2      114      7.9      158     93.8     94.5     93.0       25     1009     0.00      889     13.0
    07/29/2016 11:45      3.2      115      7.3      159     94.5     95.5     93.7       25     1009     0.00      898     13.0
    07/29/2016 12:00      5.5      120     12.6      147     94.3     95.4     93.8       26     1009     0.00      901     13.0
    07/29/2016 12:15      4.4      129      9.4       93     94.8     95.6     93.9       24     1009     0.00      900     13.0
    07/29/2016 12:30      4.2      133      8.6       74     95.0     95.5     94.6       24     1009     0.00      897     13.0
    07/29/2016 12:45      4.1      122     10.1      149     95.7     96.3     95.0       24     1008     0.00      890     13.0
    07/29/2016 13:00      4.6       96      8.9       89     95.9     96.8     95.3       23     1008     0.00      880     13.0
    07/29/2016 13:15      5.4      108      8.8       93     96.0     96.6     95.2       23     1008     0.00      866     13.0
    07/29/2016 13:30      4.3      125      9.3      145     96.6     97.6     95.4       21     1008     0.00      850     12.9
    07/29/2016 13:45      4.7      108     12.0       96     96.9     97.9     96.1       22     1008     0.00      827     13.0
    07/29/2016 14:00      5.7      128     10.2      134     96.3     96.8     95.5       22     1008     0.00      802     12.9
    07/29/2016 14:15      4.8      118      9.1      136     96.4     97.1     95.9       22     1008     0.00      773     12.9
    07/29/2016 14:30      4.8      135     10.1      144     96.4     97.7     95.6       21     1008     0.00      743     12.9
    07/29/2016 14:45      4.4      108      9.5       98     96.7     97.6     95.6       22     1007     0.00      710     12.9
    07/29/2016 15:00      4.6      107     10.1      142     96.4     97.4     95.6       21     1007     0.00      651     12.9
    07/29/2016 15:15      4.3      108     10.8       89     96.7     97.4     95.8       21     1007     0.00      631     12.9
    07/29/2016 15:30      4.2      117      9.8      127     96.6     97.3     95.8       22     1007     0.00      588     12.9
    07/29/2016 15:45      4.2      105      8.6      116     95.9     96.4     95.2       22     1007     0.00      543     12.9
    07/29/2016 16:00      4.3      127      9.1      157     95.6     96.2     94.9       22     1007     0.00      498     12.9
    07/29/2016 16:15      3.7       99      8.1       92     95.3     95.7     94.6       21     1007     0.00      451     12.9
    07/29/2016 16:30      3.6       99      8.9       72     95.1     95.7     94.5       21     1007     0.00      397     12.9
    07/29/2016 16:45      3.8      102      8.8      102     94.5     95.2     93.8       22     1007     0.00      350     13.0
    07/29/2016 17:00      3.2      106      9.7       81     93.8     94.7     93.1       22     1007     0.00      304     13.0
    07/29/2016 17:15      2.7      115      7.5      124     93.7     94.3     93.0       23     1007     0.00      259     13.0
    07/29/2016 17:30      3.4      100      7.9       94     92.7     93.2     91.9       24     1007     0.00      210     13.0
    07/29/2016 17:45      3.8       83      9.1       59     91.1     92.0     90.3       25     1007     0.00      162     13.0
    07/29/2016 18:00      4.1       76      8.7       76     90.0     90.5     89.5       25     1007     0.00       82     13.0
    07/29/2016 18:15      3.6       80      7.1       93     89.3     89.8     89.0       26     1007     0.00       39     13.0
    07/29/2016 18:30      3.1       77      6.2       73     88.9     89.2     88.4       26     1007     0.00       30     13.1
    07/29/2016 18:45      2.8       84      6.4       46     88.1     88.6     87.8       26     1007     0.00       20     13.1
    07/29/2016 19:00      1.3       91      4.0       92     87.6     87.9     87.4       26     1007     0.00        9     13.1
    07/29/2016 19:15      2.2       89      4.9       81     87.1     87.5     86.6       28     1007     0.00        2     13.1
    07/29/2016 19:30      1.9       88      4.8       75     86.3     86.8     85.8       30     1007     0.00        0     13.1
    07/29/2016 19:45      1.5       96      4.6      120     85.3     86.0     84.4       32     1007     0.00        0     13.1
    07/29/2016 20:00      2.0       97      4.6       99     84.0     84.6     83.6       34     1007     0.00        0     13.1
    07/29/2016 20:15      2.1       92      4.8      115     83.2     83.8     82.6       35     1008     0.00        0     13.1
    07/29/2016 20:30      2.6       94      6.2       92     82.3     82.9     81.6       37     1008     0.00        0     13.1
    07/29/2016 20:45      3.3       95      5.8       94     81.1     81.9     80.4       40     1008     0.00        0     13.1
    07/29/2016 21:00      2.7       77      7.1       53     80.1     80.6     79.5       42     1008     0.00        0     13.2
    07/29/2016 21:15      3.9       61      7.5       73     79.0     79.8     78.4       41     1009     0.00        0     13.2
    07/29/2016 21:30      4.6       64      8.9       53     77.8     78.6     77.1       42     1009     0.00        0     13.2
    07/29/2016 21:45      4.2       56      9.0       32     76.6     77.2     76.1       44     1009     0.00        0     13.2
    07/29/2016 22:00      3.2       72      6.1       82     76.3     76.5     76.1       44     1009     0.00        0     13.2
    07/29/2016 22:15      3.3       70      6.9       54     76.1     76.4     75.9       42     1009     0.00        0     13.2
    07/29/2016 22:30      3.0       50      7.0       66     75.9     76.2     75.6       42     1009     0.00        0     13.2
    07/29/2016 22:45      3.7       45      6.8       43     75.8     76.1     75.6       43     1009     0.00        0     13.2
    07/29/2016 23:00      3.1       53      5.9       34     75.7     75.9     75.5       43     1009     0.00        0     13.2
    07/29/2016 23:15      3.4       46      5.6       33     75.5     75.7     75.2       42     1009     0.00        0     13.2
    07/29/2016 23:30      1.6       56      4.8       51     75.4     75.6     75.3       43     1009     0.00        0     13.2
    07/29/2016 23:45      2.1       69      4.9       65     75.3     75.5     75.0       45     1009     0.00        0     13.2
    07/30/2016 00:00      1.9       66      4.1       70     74.9     75.2     74.5       46     1009     0.00        0     13.2
    07/30/2016 00:15      1.5       71      3.3       81     74.6     74.8     74.4       46     1009     0.00        0     13.2
    07/30/2016 00:30      1.0       98      3.6       73     74.4     74.7     74.1       48     1009     0.00        0     13.2
    07/30/2016 00:45      0.6      103      4.5      118     74.0     74.4     73.8       49     1009     0.00        0     13.2
    07/30/2016 01:00      1.0       92      3.9       85     73.7     73.9     73.4       49     1009     0.00        0     13.3
    07/30/2016 01:15      0.9       95      3.7       84     73.4     73.7     73.1       49     1009     0.00        0     13.2
    07/30/2016 01:30      0.3      107      2.4       85     73.0     73.4     72.6       50     1009     0.00        0     13.3
    07/30/2016 01:45      0.0      171      0.0      161     72.2     72.8     71.7       51     1008     0.00        0     13.3
    07/30/2016 02:00      0.0      171      0.0      178     71.7     71.9     71.5       51     1008     0.00        0     13.3
    07/30/2016 02:15      0.3       84      2.1      102     71.7     72.0     71.4       52     1008     0.00        0     13.3
    07/30/2016 02:30      0.5       69      2.0       78     71.9     72.2     71.5       54     1008     0.00        0     13.3
    07/30/2016 02:45      0.7       85      2.2       60     72.0     72.3     71.5       56     1008     0.00        0     13.3
    07/30/2016 03:00      0.2      108      2.1       86     71.3     71.7     71.1       58     1008     0.00        0     13.3
    07/30/2016 03:15      0.7       83      2.7       83     71.4     71.5     71.2       57     1008     0.00        0     13.3
    07/30/2016 03:30      0.6       81      2.8       85     71.3     71.7     71.0       59     1008     0.00        0     13.3
    07/30/2016 03:45      2.3      100      6.7       95     71.2     71.4     70.9       59     1008     0.00        0     13.3
    07/30/2016 04:00      4.1       89      8.4       78     71.0     71.3     70.6       60     1009     0.00        0     13.3
    07/30/2016 04:15      2.7       79      5.6       93     70.5     70.8     70.2       63     1009     0.00        0     13.3
    07/30/2016 04:30      2.1       64      5.2       68     70.2     70.5     69.9       65     1009     0.00        0     13.3
    07/30/2016 04:45      1.3       63      3.9       36     69.9     70.2     69.7       65     1009     0.00        0     13.3
    07/30/2016 05:00      0.9       66      3.3       46     69.7     69.9     69.5       66     1009     0.00        0     13.3
    07/30/2016 05:15      0.3       27      2.2      353     69.6     69.8     69.2       66     1010     0.00        4     13.3
    07/30/2016 05:30      0.1      313      1.4      313     69.3     69.5     69.2       67     1010     0.00       14     13.3
    07/30/2016 05:45      0.2      268      1.7      245     69.4     69.7     69.1       68     1010     0.00       28     13.3
    07/30/2016 06:00      0.3      213      1.7      202     69.9     70.5     69.5       67     1010     0.00       61     13.3
    07/30/2016 06:15      0.2      208      1.5      200     71.1     71.8     70.2       64     1010     0.00       91     13.3
    07/30/2016 06:30      1.6      200      2.8      209     71.9     72.2     71.5       64     1010     0.00      126     13.3
    07/30/2016 06:45      1.5      188      2.8      175     72.5     73.1     71.9       60     1010     0.00      148     13.2
    07/30/2016 07:00      0.8      176      2.4      170     73.6     74.5     72.8       59     1010     0.00      184     13.2
    07/30/2016 07:15      1.8      136      4.4      160     74.4     74.9     74.0       58     1011     0.00      227     13.2
    07/30/2016 07:30      1.0      191      2.5      199     74.7     75.1     74.3       56     1011     0.00      260     13.2
    07/30/2016 07:45      0.8      235      2.3      219     75.7     76.2     75.0       54     1011     0.00      302     13.2
    07/30/2016 08:00      0.5      164      2.1      198     77.5     78.4     76.1       51     1011     0.00      366     13.2
    07/30/2016 08:15      1.0      112      3.8      103     78.5     79.7     77.2       46     1011     0.00      400     13.1
    07/30/2016 08:30      1.5       91      4.7       84     79.6     80.5     79.0       44     1011     0.00      459     13.1
    07/30/2016 08:45      1.9      172      4.3      147     80.2     81.0     79.6       45     1011     0.00      502     13.1
    07/30/2016 09:00      1.5       94      3.8       44     81.0     82.0     79.8       44     1011     0.00      546     13.1
    07/30/2016 09:15      3.2      121      7.8      137     82.2     82.7     81.4       45     1011     0.00      532     13.1
    07/30/2016 09:30      2.2      142      5.7      153     82.4     83.5     81.1       45     1011     0.00      580     13.1
    07/30/2016 09:45      2.8      160      7.1      133     82.4     83.7     81.6       44     1011     0.00      625     13.1
    07/30/2016 10:00      2.9      134      6.2      131     83.6     84.2     82.8       42     1011     0.00      672     13.0
    07/30/2016 10:15      2.9      139      8.4       96     84.4     85.5     83.7       40     1011     0.00      642     13.0
    07/30/2016 10:30      2.6      112      6.9      135     86.2     86.8     85.5       39     1011     0.00      736     13.0
    07/30/2016 10:45      3.5      118      8.0      159     87.0     87.8     86.1       39     1011     0.00      765     13.0
    07/30/2016 11:00      3.3      110      8.7       99     87.5     88.6     86.5       42     1011     0.00      792     13.0
    07/30/2016 11:15      4.8      111     10.1       95     86.7     87.5     85.7       47     1011     0.00      775     13.0
    07/30/2016 11:30      5.1      139     10.1      146     86.3     87.2     85.3       45     1011     0.00      814     13.0
    07/30/2016 11:45      4.1      118      8.4      101     87.0     87.9     86.0       43     1011     0.00      820     13.0
    07/30/2016 12:00      4.1      118      9.6      108     86.8     87.7     86.3       44     1011     0.00      790     13.0
    07/30/2016 12:15      4.1      143      9.0      137     86.0     87.1     85.4       44     1011     0.00      814     13.0
    07/30/2016 12:30      3.8      147      7.8      166     87.2     88.1     86.5       43     1010     0.00      812     13.0
    07/30/2016 12:45      2.4      195      5.2       83     87.7     88.4     87.2       39     1010     0.00      825     13.0
    07/30/2016 13:00      2.6      163      6.3      135     89.3     90.0     88.3       37     1010     0.00      827     13.0
    07/30/2016 13:15      2.4      202      5.0      143     90.3     91.1     89.3       35     1010     0.00      824     13.0
    07/30/2016 13:30      2.4      182      7.4      173     91.1     92.5     90.3       33     1009     0.00      812     13.0
    07/30/2016 13:45      4.0      164      8.8      168     92.3     93.0     91.9       33     1009     0.00      794     13.0
    07/30/2016 14:00      3.0      192     11.4      187     93.8     96.0     92.4       31     1009     0.00      778     13.0
    07/30/2016 14:15      2.2      164      5.4      143     95.1     95.7     94.4       29     1008     0.00      747     12.9
    07/30/2016 14:30      3.4      138     11.3      104     95.5     96.1     95.0       30     1008     0.00      716     12.9
    07/30/2016 14:45      5.4      121     10.7      140     95.2     95.8     94.4       29     1008     0.00      688     12.9
    07/30/2016 15:00      4.9      117     13.3      155     94.9     95.6     94.3       25     1008     0.00      633     12.9
    07/30/2016 15:15      5.2      116     12.1       99     94.6     95.4     93.8       25     1008     0.00      610     13.0
    07/30/2016 15:30      6.1      104     14.4      154     93.2     94.7     92.1       25     1008     0.00      571     13.0
    07/30/2016 15:45      4.4      116     10.7      143     93.5     94.2     92.5       23     1008     0.00      530     13.0
    07/30/2016 16:00      6.0      121     13.4      112     92.5     93.4     91.8       22     1008     0.00      484     13.0
    07/30/2016 16:15      5.3      112     13.7       95     91.2     92.5     89.8       25     1008     0.00      437     13.0
    07/30/2016 16:30      5.1      125     14.7      152     89.4     90.3     88.5       29     1008     0.00      390     13.0
    07/30/2016 16:45      5.7      131     13.3      142     87.6     89.0     86.7       35     1008     0.00      343     13.0
    07/30/2016 17:00      4.3      109      8.7       90     86.7     87.5     85.9       39     1009     0.00      296     13.0
    07/30/2016 17:15      3.8      105      9.3       99     85.5     86.1     84.8       41     1009     0.00      248     13.0
    07/30/2016 17:30      4.0      103      7.9       96     84.5     85.1     84.0       44     1009     0.00      199     13.0
    07/30/2016 17:45      2.9      112      6.3      150     84.3     84.7     83.8       42     1009     0.00      153     13.0
    07/30/2016 18:00      3.4      108      9.2       86     83.2     83.8     82.8       44     1009     0.00       75     13.1
    07/30/2016 18:15      2.7      119      6.3      147     82.9     83.3     82.4       44     1009     0.00       42     13.1
    07/30/2016 18:30      3.3      132      6.4      111     82.2     82.7     81.6       46     1009     0.00       30     13.1
    07/30/2016 18:45      2.4      125      5.0      126     81.4     81.8     81.0       47     1009     0.00       17     13.1
    07/30/2016 19:00      2.4       93      6.0      101     81.1     81.3     80.7       48     1009     0.00        6     13.1
    07/30/2016 19:15      1.8       82      5.5       78     80.8     81.0     80.5       50     1009     0.00        1     13.1
    07/30/2016 19:30      1.7       84      4.5      101     80.5     80.8     80.3       50     1009     0.00        0     13.2
    07/30/2016 19:45      1.7      128      3.8      138     80.0     80.5     79.5       52     1009     0.00        0     13.2
    07/30/2016 20:00      3.2      142      5.7      130     79.2     79.7     78.9       53     1010     0.00        0     13.2
    07/30/2016 20:15      2.6      123      5.5      155     78.8     79.1     78.6       53     1010     0.00        0     13.2
    07/30/2016 20:30      1.9      111      6.3       80     78.4     78.7     78.1       54     1010     0.00        0     13.2
    07/30/2016 20:45      1.8      105      5.7       94     78.0     78.3     77.7       54     1010     0.00        0     13.2
    07/30/2016 21:00      1.6      106      5.9       94     77.7     78.1     77.3       55     1010     0.00        0     13.2
    07/30/2016 21:15      1.6      104      4.6       63     77.3     77.6     77.0       56     1011     0.00        0     13.2
    07/30/2016 21:30      2.0      102      5.3       93     77.0     77.3     76.7       57     1011     0.00        0     13.2